createdAt,value
2023-05-12T00:01:17.533Z,1.10
2023-05-12T00:03:44.798Z,0.75
2023-05-12T00:06:12.619Z,1.00
2023-05-12T00:08:39.494Z,0.60
2023-05-12T00:11:06.348Z,1.10
2023-05-12T00:13:33.273Z,1.30
2023-05-12T00:16:00.280Z,0.80
2023-05-12T00:18:28.828Z,0.85
2023-05-12T00:20:56.996Z,1.10
2023-05-12T00:23:23.828Z,0.73
2023-05-12T00:25:50.732Z,0.90
2023-05-12T00:28:19.132Z,1.58
2023-05-12T00:30:46.013Z,1.25
2023-05-12T00:33:13.233Z,1.17
2023-05-12T00:35:40.228Z,1.48
2023-05-12T00:38:07.164Z,1.48
2023-05-12T00:40:34.252Z,1.33
2023-05-12T00:43:01.634Z,1.00
2023-05-12T00:45:29.933Z,1.35
2023-05-12T00:47:57.754Z,1.10
2023-05-12T00:50:25.137Z,1.00
2023-05-12T00:52:52.910Z,1.50
2023-05-12T00:55:19.943Z,1.65
2023-05-12T00:57:46.852Z,1.73
2023-05-12T01:00:14.264Z,1.55
2023-05-12T01:02:41.356Z,1.48
2023-05-12T01:05:10.194Z,1.77
2023-05-12T01:07:37.236Z,1.45
2023-05-12T01:10:04.655Z,2.00
2023-05-12T01:12:32.509Z,1.85
2023-05-12T01:14:59.588Z,2.00
2023-05-12T01:17:36.319Z,2.05
2023-05-12T01:20:06.620Z,1.80
2023-05-12T01:22:34.255Z,2.60
2023-05-12T01:25:07.931Z,3.38
2023-05-12T01:27:35.276Z,2.60
2023-05-12T01:30:04.618Z,2.15
2023-05-12T01:32:31.628Z,1.50
2023-05-12T01:34:58.645Z,2.15
2023-05-12T01:37:27.029Z,2.97
2023-05-12T01:39:54.471Z,2.33
2023-05-12T01:42:21.526Z,2.42
2023-05-12T01:44:48.400Z,3.85
2023-05-12T01:47:16.177Z,2.90
2023-05-12T01:49:43.367Z,3.00
2023-05-12T01:52:10.203Z,2.17
2023-05-12T01:54:37.261Z,2.25
2023-05-12T01:57:04.590Z,2.83
2023-05-12T01:59:31.582Z,2.13
2023-05-12T02:01:58.478Z,1.85
2023-05-12T02:04:25.405Z,2.03
2023-05-12T02:06:52.298Z,1.88
2023-05-12T02:09:19.443Z,1.95
2023-05-12T02:11:46.289Z,2.35
2023-05-12T02:14:13.144Z,2.17
2023-05-12T02:16:40.048Z,2.22
2023-05-12T02:19:06.988Z,1.90
2023-05-12T02:21:33.843Z,1.70
2023-05-12T02:24:00.684Z,1.65
2023-05-12T02:26:27.560Z,2.10
2023-05-12T02:28:54.683Z,2.83
2023-05-12T02:31:21.544Z,2.70
2023-05-12T02:33:48.686Z,1.75
2023-05-12T02:36:15.523Z,1.95
2023-05-12T02:38:42.381Z,2.28
2023-05-12T02:41:09.454Z,2.63
2023-05-12T02:43:36.530Z,2.50
2023-05-12T02:46:03.468Z,2.30
2023-05-12T02:48:30.358Z,2.45
2023-05-12T02:50:57.501Z,2.67
2023-05-12T02:53:24.322Z,2.30
2023-05-12T02:55:51.302Z,2.72
2023-05-12T02:58:18.140Z,2.95
2023-05-12T03:00:45.047Z,2.47
2023-05-12T03:03:12.657Z,2.45
2023-05-12T03:05:39.641Z,2.15
2023-05-12T03:08:06.496Z,2.00
2023-05-12T03:10:33.369Z,2.80
2023-05-12T03:13:00.188Z,2.38
2023-05-12T03:15:27.050Z,3.33
2023-05-12T03:17:53.975Z,3.42
2023-05-12T03:20:21.006Z,2.75
2023-05-12T03:22:48.058Z,2.75
2023-05-12T03:25:15.880Z,2.45
2023-05-12T03:27:43.567Z,2.75
2023-05-12T03:30:11.709Z,2.05
2023-05-12T03:32:39.641Z,2.50
2023-05-12T03:35:07.695Z,2.25
2023-05-12T03:37:34.650Z,2.63
2023-05-12T03:40:01.529Z,2.15
2023-05-12T03:42:28.766Z,1.92
2023-05-12T03:44:55.683Z,1.95
2023-05-12T03:47:22.669Z,2.45
2023-05-12T03:49:49.571Z,2.58
2023-05-12T03:52:16.463Z,1.92
2023-05-12T03:54:43.343Z,1.92
2023-05-12T03:57:10.176Z,1.80
2023-05-12T03:59:37.015Z,2.28
2023-05-12T04:02:04.543Z,2.38
2023-05-12T04:04:31.648Z,2.35
2023-05-12T04:06:59.965Z,3.30
2023-05-12T04:09:26.793Z,2.78
2023-05-12T04:11:53.621Z,2.13
2023-05-12T04:14:26.533Z,2.05
2023-05-12T04:16:58.983Z,2.50
2023-05-12T04:19:26.075Z,2.15
2023-05-12T04:21:52.923Z,2.63
2023-05-12T04:24:19.732Z,2.80
2023-05-12T04:26:46.567Z,2.28
2023-05-12T04:29:13.572Z,2.45
2023-05-12T04:31:40.534Z,2.67
2023-05-12T04:34:07.425Z,4.25
2023-05-12T04:36:34.383Z,2.72
2023-05-12T04:39:01.197Z,2.50
2023-05-12T04:41:28.101Z,1.75
2023-05-12T04:46:24.673Z,2.88
2023-05-12T04:48:51.535Z,1.80
2023-05-12T04:51:18.449Z,2.00
2023-05-12T04:53:45.271Z,2.40
2023-05-12T04:56:12.125Z,1.88
2023-05-12T04:58:38.932Z,2.45
2023-05-12T05:01:05.834Z,2.17
2023-05-12T05:03:32.833Z,2.33
2023-05-12T05:05:59.857Z,2.65
2023-05-12T05:08:26.666Z,2.50
2023-05-12T05:10:53.528Z,2.25
2023-05-12T05:13:20.490Z,2.70
2023-05-12T05:15:52.227Z,2.38
2023-05-12T05:18:21.065Z,1.63
2023-05-12T05:20:57.140Z,1.83
2023-05-12T05:23:26.182Z,2.15
2023-05-12T05:25:53.182Z,3.00
2023-05-12T05:28:20.011Z,2.35
2023-05-12T05:30:46.920Z,2.05
2023-05-12T05:33:13.832Z,2.03
2023-05-12T05:35:40.828Z,2.83
2023-05-12T05:38:07.668Z,2.38
2023-05-12T05:40:48.705Z,3.20
2023-05-12T05:43:16.043Z,2.45
2023-05-12T05:45:42.887Z,1.73
2023-05-12T05:48:09.806Z,2.40
2023-05-12T05:50:36.867Z,2.08
2023-05-12T05:53:03.714Z,2.17
2023-05-12T05:55:30.518Z,2.10
2023-05-12T05:57:57.361Z,2.00
2023-05-12T06:00:24.284Z,2.10
2023-05-12T06:02:51.522Z,2.28
2023-05-12T06:05:18.761Z,2.60
2023-05-12T06:07:45.758Z,2.35
2023-05-12T06:10:12.590Z,2.53
2023-05-12T06:12:41.063Z,2.20
2023-05-12T06:15:08.724Z,3.70
2023-05-12T06:17:35.751Z,10.00
2023-05-12T06:20:03.525Z,8.43
2023-05-12T06:22:30.347Z,2.88
2023-05-12T06:24:57.331Z,2.17
2023-05-12T06:27:24.161Z,2.22
2023-05-12T06:29:51.931Z,1.83
2023-05-12T06:32:19.325Z,2.58
2023-05-12T06:34:46.171Z,2.45
2023-05-12T06:37:13.201Z,1.70
2023-05-12T06:39:40.168Z,2.35
2023-05-12T06:42:07.039Z,2.10
2023-05-12T06:44:33.918Z,2.58
2023-05-12T06:47:00.746Z,2.92
2023-05-12T06:49:27.646Z,2.30
2023-05-12T06:51:54.806Z,1.95
2023-05-12T06:54:21.660Z,3.00
2023-05-12T06:56:48.773Z,2.40
2023-05-12T06:59:15.817Z,2.78
2023-05-12T07:01:43.343Z,2.53
2023-05-12T07:04:10.521Z,2.58
2023-05-12T07:06:37.578Z,2.65
2023-05-12T07:09:04.672Z,2.95
2023-05-12T07:11:31.621Z,3.15
2023-05-12T07:13:58.500Z,4.05
2023-05-12T07:16:25.553Z,2.92
2023-05-12T07:18:52.529Z,3.90
2023-05-12T07:21:19.542Z,2.72
2023-05-12T07:23:46.432Z,2.05
2023-05-12T07:26:13.376Z,3.50
2023-05-12T07:28:40.247Z,3.47
2023-05-12T07:31:08.737Z,3.28
2023-05-12T07:33:36.443Z,2.92
2023-05-12T07:36:04.914Z,2.65
2023-05-12T07:38:32.916Z,2.83
2023-05-12T07:41:00.779Z,3.25
2023-05-12T07:43:27.881Z,4.57
2023-05-12T07:45:56.284Z,3.33
2023-05-12T07:48:23.209Z,2.92
2023-05-12T07:50:50.061Z,2.92
2023-05-12T07:53:16.971Z,3.25
2023-05-12T07:55:44.327Z,3.58
2023-05-12T07:58:12.514Z,3.25
2023-05-12T08:00:40.621Z,3.20
2023-05-12T08:03:07.904Z,3.65
2023-05-12T08:05:34.908Z,3.40
2023-05-12T08:08:01.831Z,3.30
2023-05-12T08:10:30.108Z,3.30
2023-05-12T08:12:57.003Z,3.08
2023-05-12T08:15:23.977Z,2.92
2023-05-12T08:17:50.994Z,3.65
2023-05-12T08:20:17.959Z,2.55
2023-05-12T08:22:44.888Z,1.90
2023-05-12T08:25:12.770Z,1.50
2023-05-12T08:27:44.552Z,2.08
2023-05-12T08:30:12.201Z,1.67
2023-05-12T08:32:39.328Z,1.75
2023-05-12T08:35:06.788Z,2.03
2023-05-12T08:37:34.496Z,2.05
2023-05-12T08:40:02.031Z,1.50
2023-05-12T08:42:55.967Z,2.25
2023-05-12T08:45:24.059Z,2.05
2023-05-12T08:47:54.067Z,1.55
2023-05-12T08:50:23.624Z,2.03
2023-05-12T08:52:51.641Z,2.20
2023-05-12T08:55:19.953Z,3.20
2023-05-12T08:57:48.689Z,2.20
2023-05-12T09:00:17.004Z,2.10
2023-05-12T09:02:52.993Z,2.30
2023-05-12T09:05:22.999Z,2.13
2023-05-12T09:07:50.663Z,2.55
2023-05-12T09:10:33.568Z,1.88
2023-05-12T09:13:14.198Z,1.50
2023-05-12T09:15:46.193Z,1.90
2023-05-12T09:18:13.206Z,4.97
2023-05-12T09:20:40.147Z,3.20
2023-05-12T09:23:22.220Z,2.83
2023-05-12T09:26:03.204Z,3.90
2023-05-12T09:28:39.278Z,3.20
2023-05-12T09:31:27.352Z,3.30
2023-05-12T09:33:54.275Z,2.50
2023-05-12T09:36:24.353Z,1.95
2023-05-12T09:39:07.074Z,2.13
2023-05-12T09:41:42.353Z,2.20
2023-05-12T09:44:11.295Z,2.05
2023-05-12T09:46:40.051Z,1.77
2023-05-12T09:49:07.063Z,1.70
2023-05-12T09:51:34.145Z,1.95
2023-05-12T09:54:01.573Z,1.50
2023-05-12T09:56:30.085Z,1.45
2023-05-12T09:58:58.360Z,1.58
2023-05-12T10:01:26.671Z,2.15
2023-05-12T10:04:01.156Z,2.00
2023-05-12T10:06:43.284Z,1.70
2023-05-12T10:09:22.479Z,1.77
2023-05-12T10:11:53.721Z,1.70
2023-05-12T10:14:23.164Z,1.08
2023-05-12T10:16:51.555Z,0.95
2023-05-12T10:19:19.343Z,1.27
2023-05-12T10:21:47.244Z,1.65
2023-05-12T10:24:17.068Z,1.10
2023-05-12T10:26:45.051Z,1.05
2023-05-12T10:29:13.269Z,1.30
2023-05-12T10:31:40.747Z,1.13
2023-05-12T10:34:07.671Z,1.30
2023-05-12T10:36:49.917Z,0.43
2023-05-12T10:39:17.107Z,0.80
2023-05-12T10:41:44.188Z,0.43
2023-05-12T10:44:11.490Z,0.60
2023-05-12T10:46:38.771Z,0.52
2023-05-12T10:49:10.698Z,0.68
2023-05-12T10:51:37.979Z,0.55
2023-05-12T10:54:07.967Z,0.70
2023-05-12T10:56:38.668Z,0.73
2023-05-12T10:59:14.858Z,0.60
2023-05-12T11:01:44.683Z,0.77
2023-05-12T11:04:20.339Z,0.80
2023-05-12T11:07:01.288Z,0.80
2023-05-12T11:09:29.341Z,1.10
2023-05-12T11:11:56.903Z,0.90
2023-05-12T11:14:24.313Z,0.70
2023-05-12T11:16:51.224Z,0.93
2023-05-12T11:19:18.913Z,1.20
2023-05-12T11:21:45.869Z,1.40
2023-05-12T11:24:13.397Z,1.67
2023-05-12T11:26:41.673Z,1.67
2023-05-12T11:29:08.634Z,1.63
2023-05-12T11:31:35.501Z,1.70
2023-05-12T11:34:13.512Z,1.48
2023-05-12T11:36:44.566Z,1.90
2023-05-12T11:39:20.988Z,1.60
2023-05-12T11:41:51.341Z,1.92
2023-05-12T11:44:21.682Z,1.92
2023-05-12T11:47:13.105Z,2.80
2023-05-12T11:50:07.652Z,2.60
2023-05-12T11:52:34.648Z,2.95
2023-05-12T11:55:01.634Z,3.92
2023-05-12T11:57:33.621Z,3.25
2023-05-12T12:00:07.092Z,2.83
2023-05-12T12:02:36.066Z,3.00
2023-05-12T12:05:03.668Z,2.88
2023-05-12T12:07:36.672Z,2.45
2023-05-12T12:12:45.958Z,2.22
2023-05-12T12:15:13.487Z,2.22
2023-05-12T12:17:40.715Z,2.72
2023-05-12T12:20:09.390Z,2.33
2023-05-12T12:22:36.651Z,2.42
2023-05-12T12:25:04.311Z,2.53
2023-05-12T12:27:31.258Z,2.10
2023-05-12T12:29:58.155Z,2.75
2023-05-12T12:32:25.202Z,2.15
2023-05-12T12:34:53.521Z,2.08
2023-05-12T12:37:20.415Z,2.05
2023-05-12T12:39:48.072Z,1.42
2023-05-12T12:42:15.814Z,1.52
2023-05-12T12:44:43.994Z,1.52
2023-05-12T12:47:10.924Z,1.73
2023-05-12T12:49:37.918Z,1.30
2023-05-12T12:52:05.195Z,1.50
2023-05-12T12:54:32.100Z,1.27
2023-05-12T12:56:59.020Z,0.68
2023-05-12T12:59:27.132Z,1.15
2023-05-12T13:01:54.146Z,1.30
2023-05-12T13:04:23.197Z,1.75
2023-05-12T13:06:50.161Z,1.23
2023-05-12T13:09:19.998Z,0.93
2023-05-12T13:11:47.980Z,1.23
2023-05-12T13:14:14.880Z,1.15
2023-05-12T13:16:42.268Z,0.95
2023-05-12T13:19:09.254Z,1.02
2023-05-12T13:21:36.327Z,0.82
2023-05-12T13:24:03.363Z,0.57
2023-05-12T13:26:30.197Z,0.82
2023-05-12T13:28:57.497Z,0.82
2023-05-12T13:31:24.473Z,0.50
2023-05-12T13:33:51.396Z,0.80
2023-05-12T13:36:19.633Z,1.50
2023-05-12T13:38:49.119Z,0.50
2023-05-12T13:41:16.053Z,0.77
2023-05-12T13:43:43.861Z,0.93
2023-05-12T13:46:10.863Z,0.68
2023-05-12T13:48:37.807Z,0.55
2023-05-12T13:51:04.984Z,0.60
2023-05-12T13:53:32.478Z,0.68
2023-05-12T13:55:59.412Z,0.70
2023-05-12T13:58:26.264Z,0.70
2023-05-12T14:00:53.414Z,0.63
2023-05-12T14:03:21.005Z,0.45
2023-05-12T14:05:47.949Z,0.52
2023-05-12T14:08:14.863Z,0.20
2023-05-12T14:10:41.751Z,0.30
2023-05-12T14:13:08.725Z,0.30
2023-05-12T14:15:47.961Z,0.20
2023-05-12T14:18:16.770Z,0.40
2023-05-12T14:20:43.696Z,0.20
2023-05-12T14:23:10.629Z,0.20
2023-05-12T14:25:37.554Z,0.30
2023-05-12T14:28:04.545Z,0.30
2023-05-12T14:30:31.486Z,0.10
2023-05-12T14:32:58.422Z,0.20
2023-05-12T14:35:27.909Z,0.25
2023-05-12T14:37:55.826Z,0.30
2023-05-12T14:40:23.633Z,0.68
2023-05-12T14:42:50.758Z,0.40
2023-05-12T14:45:17.934Z,0.30
2023-05-12T14:47:45.198Z,0.60
2023-05-12T14:50:12.381Z,0.30
2023-05-12T14:52:39.706Z,0.30
2023-05-12T14:55:12.024Z,0.20
2023-05-12T14:57:40.802Z,0.30
2023-05-12T15:00:11.051Z,0.30
2023-05-12T15:02:39.864Z,0.20
2023-05-12T15:05:08.955Z,0.30
2023-05-12T15:07:36.877Z,0.40
2023-05-12T15:10:05.218Z,0.47
2023-05-12T15:12:33.338Z,0.47
2023-05-12T15:15:02.399Z,0.30
2023-05-12T15:17:29.384Z,0.47
2023-05-12T15:19:56.728Z,0.32
2023-05-12T15:22:23.751Z,0.30
2023-05-12T15:24:50.751Z,0.68
2023-05-12T15:27:17.682Z,0.55
2023-05-12T15:29:44.630Z,0.77
2023-05-12T15:32:11.532Z,0.47
2023-05-12T15:34:39.379Z,2.45
2023-05-12T15:37:06.779Z,0.57
2023-05-12T15:39:33.791Z,0.50
2023-05-12T15:42:01.308Z,0.85
2023-05-12T15:44:28.241Z,0.70
2023-05-12T15:46:55.421Z,0.90
2023-05-12T15:49:22.666Z,0.90
2023-05-12T15:51:49.533Z,0.60
2023-05-12T15:54:16.773Z,0.80
2023-05-12T15:56:43.820Z,0.63
2023-05-12T15:59:12.376Z,0.50
2023-05-12T16:01:39.355Z,0.60
2023-05-12T16:04:07.066Z,0.38
2023-05-12T16:06:35.276Z,1.15
2023-05-12T16:09:02.432Z,1.20
2023-05-12T16:11:29.936Z,0.88
2023-05-12T16:13:57.483Z,0.88
2023-05-12T16:16:24.664Z,0.73
2023-05-12T16:18:51.595Z,0.90
2023-05-12T16:21:18.631Z,1.23
2023-05-12T16:23:45.517Z,1.10
2023-05-12T16:26:12.408Z,0.90
2023-05-12T16:28:39.296Z,1.35
2023-05-12T16:31:06.136Z,1.38
2023-05-12T16:33:33.097Z,1.20
2023-05-12T16:36:00.067Z,1.30
2023-05-12T16:38:27.062Z,1.10
2023-05-12T16:40:53.913Z,1.55
2023-05-12T16:43:20.825Z,1.30
2023-05-12T16:45:48.314Z,1.15
2023-05-12T16:48:15.321Z,1.00
2023-05-12T16:50:42.163Z,1.17
2023-05-12T16:53:09.016Z,1.38
2023-05-12T16:55:35.954Z,1.02
2023-05-12T16:58:02.839Z,1.13
2023-05-12T17:00:30.151Z,1.25
2023-05-12T17:02:57.164Z,1.20
2023-05-12T17:05:24.834Z,1.15
2023-05-12T17:07:51.799Z,1.40
2023-05-12T17:10:18.655Z,1.35
2023-05-12T17:12:45.488Z,1.40
2023-05-12T17:15:12.321Z,1.38
2023-05-12T17:17:39.552Z,1.15
2023-05-12T17:20:07.221Z,1.17
2023-05-12T17:22:37.387Z,1.42
2023-05-12T17:25:04.715Z,1.35
2023-05-12T17:27:31.711Z,1.80
2023-05-12T17:29:59.970Z,1.50
2023-05-12T17:32:27.225Z,1.30
2023-05-12T17:34:54.072Z,1.35
2023-05-12T17:37:20.943Z,1.40
2023-05-12T17:39:47.808Z,1.20
2023-05-12T17:42:14.701Z,1.70
2023-05-12T17:44:41.727Z,1.42
2023-05-12T17:47:08.786Z,1.33
2023-05-12T17:49:35.757Z,1.80
2023-05-12T17:52:02.588Z,1.45
2023-05-12T17:54:29.522Z,1.60
2023-05-12T17:56:56.380Z,2.45
2023-05-12T17:59:23.260Z,1.90
2023-05-12T18:01:50.121Z,2.50
2023-05-12T18:04:17.261Z,2.38
2023-05-12T18:06:44.114Z,2.72
2023-05-12T18:09:11.021Z,3.55
2023-05-12T18:11:37.881Z,3.60
2023-05-12T18:14:06.211Z,2.63
2023-05-12T18:16:33.538Z,3.40
2023-05-12T18:19:00.854Z,3.97
2023-05-12T18:21:27.802Z,3.88
2023-05-12T18:23:54.670Z,5.03
2023-05-12T18:26:22.185Z,5.45
2023-05-12T18:28:49.044Z,5.30
2023-05-12T18:31:19.611Z,6.03
2023-05-12T18:33:48.141Z,4.35
2023-05-12T18:36:16.279Z,5.55
2023-05-12T18:38:43.714Z,4.45
2023-05-12T18:41:11.665Z,4.63
2023-05-12T18:43:38.760Z,3.55
2023-05-12T18:46:06.257Z,2.70
2023-05-12T18:48:33.311Z,3.60
2023-05-12T18:51:01.487Z,3.22
2023-05-12T18:53:28.446Z,3.15
2023-05-12T18:55:55.390Z,3.40
2023-05-12T18:58:22.328Z,3.30
2023-05-12T19:00:49.177Z,3.40
2023-05-12T19:03:16.478Z,3.30
2023-05-12T19:05:44.779Z,3.40
2023-05-12T19:08:12.764Z,3.80
2023-05-12T19:10:40.242Z,3.75
2023-05-12T19:13:07.440Z,3.42
2023-05-12T19:15:34.503Z,3.35
2023-05-12T19:18:01.326Z,2.97
2023-05-12T19:20:29.203Z,3.47
2023-05-12T19:22:56.098Z,3.83
2023-05-12T19:25:23.431Z,3.88
2023-05-12T19:27:51.071Z,3.83
2023-05-12T19:30:18.073Z,2.72
2023-05-12T19:32:46.326Z,2.80
2023-05-12T19:35:16.919Z,3.70
2023-05-12T19:37:44.144Z,3.10
2023-05-12T19:40:11.531Z,2.35
2023-05-12T19:42:38.378Z,3.75
2023-05-12T19:45:06.216Z,2.95
2023-05-12T19:47:33.638Z,2.67
2023-05-12T19:50:01.033Z,2.72
2023-05-12T19:52:30.831Z,3.28
2023-05-12T19:54:57.857Z,2.92
2023-05-12T19:57:24.675Z,3.55
2023-05-12T19:59:51.559Z,3.20
2023-05-12T20:02:18.584Z,3.92
2023-05-12T20:04:45.555Z,3.45
2023-05-12T20:07:12.441Z,2.65
2023-05-12T20:09:39.281Z,3.55
2023-05-12T20:12:08.163Z,2.97
2023-05-12T20:14:38.627Z,2.90
2023-05-12T20:17:07.569Z,2.97
2023-05-12T20:19:34.757Z,3.08
2023-05-12T20:22:01.975Z,2.47
2023-05-12T20:24:28.924Z,2.67
2023-05-12T20:26:56.158Z,3.10
2023-05-12T20:29:23.224Z,3.70
2023-05-12T20:31:51.513Z,2.70
2023-05-12T20:34:19.423Z,3.53
2023-05-12T20:36:47.139Z,3.35
2023-05-12T20:39:14.351Z,3.30
2023-05-12T20:41:43.620Z,3.15
2023-05-12T20:44:11.078Z,2.67
2023-05-12T20:46:38.912Z,3.80
2023-05-12T20:49:06.505Z,3.03
2023-05-12T20:51:33.569Z,4.18
2023-05-12T20:54:00.583Z,3.58
2023-05-12T20:56:27.471Z,3.55
2023-05-12T20:58:54.407Z,3.08
2023-05-12T21:01:21.441Z,3.60
2023-05-12T21:03:48.738Z,2.90
2023-05-12T21:06:16.034Z,2.53
2023-05-12T21:08:42.854Z,2.55
2023-05-12T21:11:19.307Z,3.10
2023-05-12T21:13:47.288Z,3.60
2023-05-12T21:16:15.527Z,3.88
2023-05-12T21:18:42.611Z,2.85
2023-05-12T21:21:09.509Z,3.80
2023-05-12T21:23:37.677Z,3.15
2023-05-12T21:26:05.394Z,3.80
2023-05-12T21:28:32.313Z,2.28
2023-05-12T21:30:59.253Z,3.38
2023-05-12T21:33:26.129Z,4.15
2023-05-12T21:35:52.963Z,3.55
2023-05-12T21:38:21.034Z,2.85
2023-05-12T21:40:56.506Z,3.35
2023-05-12T21:43:23.397Z,4.22
2023-05-12T21:45:50.258Z,3.88
2023-05-12T21:48:17.780Z,3.63
2023-05-12T21:50:44.617Z,3.90
2023-05-12T21:53:11.856Z,4.22
2023-05-12T21:55:40.881Z,3.15
2023-05-12T21:58:07.704Z,3.55
2023-05-12T22:00:34.571Z,3.55
2023-05-12T22:03:01.514Z,3.25
2023-05-12T22:05:28.415Z,4.10
2023-05-12T22:07:55.861Z,3.22
2023-05-12T22:10:22.890Z,3.13
2023-05-12T22:12:49.837Z,4.05
2023-05-12T22:15:18.077Z,2.85
2023-05-12T22:17:48.893Z,2.90
2023-05-12T22:20:17.460Z,3.22
2023-05-12T22:22:44.520Z,3.72
2023-05-12T22:25:11.583Z,3.22
2023-05-12T22:27:38.529Z,2.95
2023-05-12T22:30:06.262Z,3.72
2023-05-12T22:32:33.363Z,3.45
2023-05-12T22:35:00.354Z,4.45
2023-05-12T22:37:27.514Z,2.95
2023-05-12T22:39:54.910Z,3.75
2023-05-12T22:42:21.784Z,3.03
2023-05-12T22:44:48.598Z,3.58
2023-05-12T22:47:15.624Z,3.33
2023-05-12T22:49:42.515Z,2.78
2023-05-12T22:52:09.476Z,3.38
2023-05-12T22:54:36.292Z,2.97
2023-05-12T22:57:03.116Z,3.47
2023-05-12T22:59:29.939Z,3.20
2023-05-12T23:01:56.764Z,3.85
2023-05-12T23:04:23.611Z,3.58
2023-05-12T23:06:50.642Z,3.17
2023-05-12T23:09:17.498Z,3.08
2023-05-12T23:11:44.342Z,2.83
2023-05-12T23:14:11.671Z,2.65
2023-05-12T23:16:38.707Z,3.30
2023-05-12T23:19:05.695Z,3.70
2023-05-12T23:21:33.149Z,3.17
2023-05-12T23:24:00.284Z,3.65
2023-05-12T23:26:27.166Z,3.80
2023-05-12T23:28:54.355Z,3.05
2023-05-12T23:31:21.212Z,3.10
2023-05-12T23:33:48.093Z,3.28
2023-05-12T23:36:14.996Z,3.65
2023-05-12T23:38:41.858Z,3.78
2023-05-12T23:41:08.780Z,3.42
2023-05-12T23:43:35.642Z,3.47
2023-05-12T23:46:02.777Z,3.38
2023-05-12T23:48:30.415Z,4.07
2023-05-12T23:50:57.358Z,3.30
2023-05-12T23:53:24.203Z,3.65
2023-05-12T23:55:51.106Z,3.88
2023-05-12T23:58:17.928Z,4.60
